sensor_id;sensor_type;location;lat;lon;timestamp;temperature;humidity
4695;DHT22;2361;49.540;8.390;2023-07-02T00:00:05;19.40;99.90
4695;DHT22;2361;49.540;8.390;2023-07-02T00:02:34;19.40;99.90
4695;DHT22;2361;49.540;8.390;2023-07-02T00:05:05;19.50;99.90
4695;DHT22;2361;49.540;8.390;2023-07-02T00:07:34;19.50;99.90
4695;DHT22;2361;49.540;8.390;2023-07-02T00:10:03;19.50;99.90
4695;DHT22;2361;49.540;8.390;2023-07-02T00:12:31;19.50;99.90
4695;DHT22;2361;49.540;8.390;2023-07-02T00:14:58;19.50;99.90
4695;DHT22;2361;49.540;8.390;2023-07-02T00:17:25;19.50;99.90
4695;DHT22;2361;49.540;8.390;2023-07-02T00:19:52;19.50;99.90
4695;DHT22;2361;49.540;8.390;2023-07-02T00:22:20;19.50;99.90
4695;DHT22;2361;49.540;8.390;2023-07-02T00:24:47;19.60;99.90
4695;DHT22;2361;49.540;8.390;2023-07-02T00:27:17;19.50;99.90
4695;DHT22;2361;49.540;8.390;2023-07-02T00:29:44;19.50;99.90
4695;DHT22;2361;49.540;8.390;2023-07-02T00:32:11;19.60;99.90
4695;DHT22;2361;49.540;8.390;2023-07-02T00:34:37;19.50;99.90
4695;DHT22;2361;49.540;8.390;2023-07-02T00:37:04;19.50;99.90
4695;DHT22;2361;49.540;8.390;2023-07-02T00:39:32;19.50;99.90
4695;DHT22;2361;49.540;8.390;2023-07-02T00:42:02;19.40;99.90
4695;DHT22;2361;49.540;8.390;2023-07-02T00:44:30;19.40;99.90
4695;DHT22;2361;49.540;8.390;2023-07-02T00:46:57;19.30;99.90
4695;DHT22;2361;49.540;8.390;2023-07-02T00:49:25;19.30;99.90
4695;DHT22;2361;49.540;8.390;2023-07-02T00:51:52;19.30;99.90
4695;DHT22;2361;49.540;8.390;2023-07-02T00:54:19;19.30;99.90
4695;DHT22;2361;49.540;8.390;2023-07-02T00:56:46;19.20;99.90
4695;DHT22;2361;49.540;8.390;2023-07-02T00:59:13;19.20;99.90
4695;DHT22;2361;49.540;8.390;2023-07-02T01:01:40;19.20;99.90
4695;DHT22;2361;49.540;8.390;2023-07-02T01:04:07;19.20;99.90
4695;DHT22;2361;49.540;8.390;2023-07-02T01:06:36;19.20;99.90
4695;DHT22;2361;49.540;8.390;2023-07-02T01:09:05;19.20;99.90
4695;DHT22;2361;49.540;8.390;2023-07-02T01:14:19;19.20;99.90
4695;DHT22;2361;49.540;8.390;2023-07-02T01:16:49;19.10;99.90
4695;DHT22;2361;49.540;8.390;2023-07-02T01:22:19;19.10;99.90
4695;DHT22;2361;49.540;8.390;2023-07-02T01:24:54;19.10;99.90
4695;DHT22;2361;49.540;8.390;2023-07-02T01:27:21;19.10;99.90
4695;DHT22;2361;49.540;8.390;2023-07-02T01:29:52;19.10;99.90
4695;DHT22;2361;49.540;8.390;2023-07-02T01:32:20;19.10;99.90
4695;DHT22;2361;49.540;8.390;2023-07-02T01:34:47;19.00;99.90
4695;DHT22;2361;49.540;8.390;2023-07-02T01:37:16;19.00;99.90
4695;DHT22;2361;49.540;8.390;2023-07-02T01:39:44;19.00;99.90
4695;DHT22;2361;49.540;8.390;2023-07-02T01:42:15;18.90;99.90
4695;DHT22;2361;49.540;8.390;2023-07-02T01:44:44;18.90;99.90
4695;DHT22;2361;49.540;8.390;2023-07-02T01:47:13;18.90;99.90
4695;DHT22;2361;49.540;8.390;2023-07-02T01:49:40;18.90;99.90
4695;DHT22;2361;49.540;8.390;2023-07-02T01:52:07;18.90;99.90
4695;DHT22;2361;49.540;8.390;2023-07-02T01:54:35;18.90;99.90
4695;DHT22;2361;49.540;8.390;2023-07-02T01:57:03;18.90;99.90
4695;DHT22;2361;49.540;8.390;2023-07-02T01:59:31;18.90;99.90
4695;DHT22;2361;49.540;8.390;2023-07-02T02:01:58;18.90;99.90
4695;DHT22;2361;49.540;8.390;2023-07-02T02:04:25;18.90;99.90
4695;DHT22;2361;49.540;8.390;2023-07-02T02:06:53;18.90;99.90
4695;DHT22;2361;49.540;8.390;2023-07-02T02:09:20;18.90;99.90
4695;DHT22;2361;49.540;8.390;2023-07-02T02:11:49;18.80;99.90
4695;DHT22;2361;49.540;8.390;2023-07-02T02:14:18;18.80;99.90
4695;DHT22;2361;49.540;8.390;2023-07-02T02:16:45;18.80;99.90
4695;DHT22;2361;49.540;8.390;2023-07-02T02:19:13;18.70;99.90
4695;DHT22;2361;49.540;8.390;2023-07-02T02:21:42;18.70;99.90
4695;DHT22;2361;49.540;8.390;2023-07-02T02:24:09;18.70;99.90
4695;DHT22;2361;49.540;8.390;2023-07-02T02:26:37;18.60;99.90
4695;DHT22;2361;49.540;8.390;2023-07-02T02:29:04;18.70;99.90
4695;DHT22;2361;49.540;8.390;2023-07-02T02:31:31;18.60;99.90
4695;DHT22;2361;49.540;8.390;2023-07-02T02:33:58;18.60;99.90
4695;DHT22;2361;49.540;8.390;2023-07-02T02:36:25;18.70;99.90
4695;DHT22;2361;49.540;8.390;2023-07-02T02:38:52;18.60;99.90
4695;DHT22;2361;49.540;8.390;2023-07-02T02:41:19;18.60;99.90
4695;DHT22;2361;49.540;8.390;2023-07-02T02:43:46;18.60;99.90
4695;DHT22;2361;49.540;8.390;2023-07-02T02:46:19;18.60;99.90
4695;DHT22;2361;49.540;8.390;2023-07-02T02:48:49;18.60;99.90
4695;DHT22;2361;49.540;8.390;2023-07-02T02:51:16;18.60;99.90
4695;DHT22;2361;49.540;8.390;2023-07-02T02:53:43;18.60;99.90
4695;DHT22;2361;49.540;8.390;2023-07-02T02:56:10;18.60;99.90
4695;DHT22;2361;49.540;8.390;2023-07-02T02:58:37;18.50;99.90
4695;DHT22;2361;49.540;8.390;2023-07-02T03:01:04;18.50;99.90
4695;DHT22;2361;49.540;8.390;2023-07-02T03:03:40;18.50;99.90
4695;DHT22;2361;49.540;8.390;2023-07-02T03:06:12;18.50;99.90
4695;DHT22;2361;49.540;8.390;2023-07-02T03:08:41;18.60;99.90
4695;DHT22;2361;49.540;8.390;2023-07-02T03:11:10;18.60;99.90
4695;DHT22;2361;49.540;8.390;2023-07-02T03:13:37;18.70;99.90
4695;DHT22;2361;49.540;8.390;2023-07-02T03:16:05;18.70;99.90
4695;DHT22;2361;49.540;8.390;2023-07-02T03:18:32;18.70;99.90
4695;DHT22;2361;49.540;8.390;2023-07-02T03:20:59;18.70;99.90
4695;DHT22;2361;49.540;8.390;2023-07-02T03:23:26;18.70;99.90
4695;DHT22;2361;49.540;8.390;2023-07-02T03:25:53;18.70;99.90
4695;DHT22;2361;49.540;8.390;2023-07-02T03:28:20;18.60;99.90
4695;DHT22;2361;49.540;8.390;2023-07-02T03:30:47;18.60;99.90
4695;DHT22;2361;49.540;8.390;2023-07-02T03:33:15;18.50;99.90
4695;DHT22;2361;49.540;8.390;2023-07-02T03:35:42;18.50;99.90
4695;DHT22;2361;49.540;8.390;2023-07-02T03:38:09;18.50;99.90
4695;DHT22;2361;49.540;8.390;2023-07-02T03:40:36;18.40;99.90
4695;DHT22;2361;49.540;8.390;2023-07-02T03:43:03;18.40;99.90
4695;DHT22;2361;49.540;8.390;2023-07-02T03:45:30;18.30;99.90
4695;DHT22;2361;49.540;8.390;2023-07-02T03:47:56;18.30;99.90
4695;DHT22;2361;49.540;8.390;2023-07-02T03:50:23;18.40;99.90
4695;DHT22;2361;49.540;8.390;2023-07-02T03:52:50;18.40;99.90
4695;DHT22;2361;49.540;8.390;2023-07-02T03:55:19;18.40;99.90
4695;DHT22;2361;49.540;8.390;2023-07-02T03:57:47;18.40;99.90
4695;DHT22;2361;49.540;8.390;2023-07-02T04:00:14;18.40;99.90
4695;DHT22;2361;49.540;8.390;2023-07-02T04:02:41;18.40;99.90
4695;DHT22;2361;49.540;8.390;2023-07-02T04:05:08;18.50;99.90
4695;DHT22;2361;49.540;8.390;2023-07-02T04:07:35;18.50;99.90
4695;DHT22;2361;49.540;8.390;2023-07-02T04:10:03;18.50;99.90
4695;DHT22;2361;49.540;8.390;2023-07-02T04:12:30;18.40;99.90
4695;DHT22;2361;49.540;8.390;2023-07-02T04:14:57;18.50;99.90
4695;DHT22;2361;49.540;8.390;2023-07-02T04:17:24;18.50;99.90
4695;DHT22;2361;49.540;8.390;2023-07-02T04:19:54;18.50;99.90
4695;DHT22;2361;49.540;8.390;2023-07-02T04:22:21;18.50;99.90
4695;DHT22;2361;49.540;8.390;2023-07-02T04:24:48;18.50;99.90
4695;DHT22;2361;49.540;8.390;2023-07-02T04:27:19;18.50;99.90
4695;DHT22;2361;49.540;8.390;2023-07-02T04:30:07;18.60;99.90
4695;DHT22;2361;49.540;8.390;2023-07-02T04:32:35;18.80;99.90
4695;DHT22;2361;49.540;8.390;2023-07-02T04:35:02;18.90;99.90
4695;DHT22;2361;49.540;8.390;2023-07-02T04:37:29;19.10;99.90
4695;DHT22;2361;49.540;8.390;2023-07-02T04:39:56;19.20;99.90
4695;DHT22;2361;49.540;8.390;2023-07-02T04:42:23;19.40;99.90
4695;DHT22;2361;49.540;8.390;2023-07-02T04:44:54;19.60;99.90
4695;DHT22;2361;49.540;8.390;2023-07-02T04:47:22;19.80;99.90
4695;DHT22;2361;49.540;8.390;2023-07-02T04:49:49;19.90;99.90
4695;DHT22;2361;49.540;8.390;2023-07-02T04:52:16;20.10;99.90
4695;DHT22;2361;49.540;8.390;2023-07-02T04:54:43;20.30;99.90
4695;DHT22;2361;49.540;8.390;2023-07-02T04:57:10;20.30;99.90
4695;DHT22;2361;49.540;8.390;2023-07-02T04:59:37;20.40;99.90
4695;DHT22;2361;49.540;8.390;2023-07-02T05:02:04;20.40;99.90
4695;DHT22;2361;49.540;8.390;2023-07-02T05:04:31;20.50;99.90
4695;DHT22;2361;49.540;8.390;2023-07-02T05:06:59;20.70;99.90
4695;DHT22;2361;49.540;8.390;2023-07-02T05:09:27;20.80;99.90
4695;DHT22;2361;49.540;8.390;2023-07-02T05:11:54;20.90;99.90
4695;DHT22;2361;49.540;8.390;2023-07-02T05:14:21;21.10;99.90
4695;DHT22;2361;49.540;8.390;2023-07-02T05:16:49;21.30;99.90
4695;DHT22;2361;49.540;8.390;2023-07-02T05:19:16;21.50;99.90
4695;DHT22;2361;49.540;8.390;2023-07-02T05:21:43;21.70;99.90
4695;DHT22;2361;49.540;8.390;2023-07-02T05:24:10;21.90;99.90
4695;DHT22;2361;49.540;8.390;2023-07-02T05:26:37;22.00;99.90
4695;DHT22;2361;49.540;8.390;2023-07-02T05:29:04;22.00;99.90
4695;DHT22;2361;49.540;8.390;2023-07-02T05:31:31;21.90;99.90
4695;DHT22;2361;49.540;8.390;2023-07-02T05:34:00;21.80;99.90
4695;DHT22;2361;49.540;8.390;2023-07-02T05:36:27;21.60;99.90
4695;DHT22;2361;49.540;8.390;2023-07-02T05:38:54;21.40;99.90
4695;DHT22;2361;49.540;8.390;2023-07-02T05:41:21;21.20;99.90
4695;DHT22;2361;49.540;8.390;2023-07-02T05:43:48;21.00;99.90
4695;DHT22;2361;49.540;8.390;2023-07-02T05:46:16;20.90;99.90
4695;DHT22;2361;49.540;8.390;2023-07-02T05:48:43;20.80;99.90
4695;DHT22;2361;49.540;8.390;2023-07-02T05:51:10;20.80;99.90
4695;DHT22;2361;49.540;8.390;2023-07-02T05:53:37;20.70;99.90
4695;DHT22;2361;49.540;8.390;2023-07-02T05:56:04;20.70;99.90
4695;DHT22;2361;49.540;8.390;2023-07-02T05:58:31;20.80;99.90
4695;DHT22;2361;49.540;8.390;2023-07-02T06:01:12;20.80;99.90
4695;DHT22;2361;49.540;8.390;2023-07-02T06:03:39;20.90;99.90
4695;DHT22;2361;49.540;8.390;2023-07-02T06:06:06;21.10;99.90
4695;DHT22;2361;49.540;8.390;2023-07-02T06:08:33;21.70;99.90
4695;DHT22;2361;49.540;8.390;2023-07-02T06:11:01;22.10;99.90
4695;DHT22;2361;49.540;8.390;2023-07-02T06:13:28;22.70;99.90
4695;DHT22;2361;49.540;8.390;2023-07-02T06:15:55;23.10;99.90
4695;DHT22;2361;49.540;8.390;2023-07-02T06:18:22;23.30;99.90
4695;DHT22;2361;49.540;8.390;2023-07-02T06:20:50;23.60;99.70
4695;DHT22;2361;49.540;8.390;2023-07-02T06:23:17;23.90;99.00
4695;DHT22;2361;49.540;8.390;2023-07-02T06:25:44;24.20;97.90
4695;DHT22;2361;49.540;8.390;2023-07-02T06:28:11;24.40;97.80
4695;DHT22;2361;49.540;8.390;2023-07-02T06:30:38;24.70;97.00
4695;DHT22;2361;49.540;8.390;2023-07-02T06:33:05;25.00;95.90
4695;DHT22;2361;49.540;8.390;2023-07-02T06:35:32;25.30;94.70
4695;DHT22;2361;49.540;8.390;2023-07-02T06:37:59;25.60;93.70
4695;DHT22;2361;49.540;8.390;2023-07-02T06:40:26;26.00;93.20
4695;DHT22;2361;49.540;8.390;2023-07-02T06:42:53;26.60;92.30
4695;DHT22;2361;49.540;8.390;2023-07-02T06:45:20;27.30;90.90
4695;DHT22;2361;49.540;8.390;2023-07-02T06:47:47;28.00;87.90
4695;DHT22;2361;49.540;8.390;2023-07-02T06:50:14;28.30;83.20
4695;DHT22;2361;49.540;8.390;2023-07-02T06:52:41;28.80;81.30
4695;DHT22;2361;49.540;8.390;2023-07-02T06:55:08;29.40;77.90
4695;DHT22;2361;49.540;8.390;2023-07-02T06:57:41;29.50;74.40
4695;DHT22;2361;49.540;8.390;2023-07-02T07:00:09;29.70;72.70
4695;DHT22;2361;49.540;8.390;2023-07-02T07:02:36;30.20;71.50
4695;DHT22;2361;49.540;8.390;2023-07-02T07:05:04;31.10;68.00
4695;DHT22;2361;49.540;8.390;2023-07-02T07:07:31;31.80;65.30
4695;DHT22;2361;49.540;8.390;2023-07-02T07:09:58;32.50;63.00
4695;DHT22;2361;49.540;8.390;2023-07-02T07:12:25;32.80;61.30
4695;DHT22;2361;49.540;8.390;2023-07-02T07:14:52;33.30;59.30
4695;DHT22;2361;49.540;8.390;2023-07-02T07:17:19;33.50;58.60
4695;DHT22;2361;49.540;8.390;2023-07-02T07:19:46;34.00;58.30
4695;DHT22;2361;49.540;8.390;2023-07-02T07:22:14;34.40;55.80
4695;DHT22;2361;49.540;8.390;2023-07-02T07:24:41;34.70;55.10
4695;DHT22;2361;49.540;8.390;2023-07-02T07:27:09;35.10;53.90
4695;DHT22;2361;49.540;8.390;2023-07-02T07:29:36;35.40;53.30
4695;DHT22;2361;49.540;8.390;2023-07-02T07:32:03;35.80;52.20
4695;DHT22;2361;49.540;8.390;2023-07-02T07:34:32;36.10;51.20
4695;DHT22;2361;49.540;8.390;2023-07-02T07:36:59;36.20;50.40
4695;DHT22;2361;49.540;8.390;2023-07-02T07:39:26;36.50;50.30
4695;DHT22;2361;49.540;8.390;2023-07-02T07:41:53;37.00;50.20
4695;DHT22;2361;49.540;8.390;2023-07-02T07:44:20;37.50;49.20
4695;DHT22;2361;49.540;8.390;2023-07-02T07:46:47;37.40;48.10
4695;DHT22;2361;49.540;8.390;2023-07-02T07:49:14;37.40;48.00
4695;DHT22;2361;49.540;8.390;2023-07-02T07:51:41;37.60;47.70
4695;DHT22;2361;49.540;8.390;2023-07-02T07:54:08;37.90;46.90
4695;DHT22;2361;49.540;8.390;2023-07-02T07:56:35;38.00;46.50
4695;DHT22;2361;49.540;8.390;2023-07-02T07:59:02;37.90;46.20
4695;DHT22;2361;49.540;8.390;2023-07-02T08:01:29;37.60;46.40
4695;DHT22;2361;49.540;8.390;2023-07-02T08:03:56;37.70;46.20
4695;DHT22;2361;49.540;8.390;2023-07-02T08:06:23;37.60;46.00
4695;DHT22;2361;49.540;8.390;2023-07-02T08:08:50;36.90;46.20
4695;DHT22;2361;49.540;8.390;2023-07-02T08:11:17;35.50;47.10
4695;DHT22;2361;49.540;8.390;2023-07-02T08:13:44;34.90;48.30
4695;DHT22;2361;49.540;8.390;2023-07-02T08:16:11;34.30;48.40
4695;DHT22;2361;49.540;8.390;2023-07-02T08:18:39;33.20;49.40
4695;DHT22;2361;49.540;8.390;2023-07-02T08:21:07;31.90;50.50
4695;DHT22;2361;49.540;8.390;2023-07-02T08:23:34;30.50;51.70
4695;DHT22;2361;49.540;8.390;2023-07-02T08:26:01;29.90;53.30
4695;DHT22;2361;49.540;8.390;2023-07-02T08:28:29;29.40;54.30
4695;DHT22;2361;49.540;8.390;2023-07-02T08:30:56;28.60;55.70
4695;DHT22;2361;49.540;8.390;2023-07-02T08:33:23;27.70;57.00
4695;DHT22;2361;49.540;8.390;2023-07-02T08:35:50;27.20;58.40
4695;DHT22;2361;49.540;8.390;2023-07-02T08:38:17;27.60;58.90
4695;DHT22;2361;49.540;8.390;2023-07-02T08:40:44;28.70;57.00
4695;DHT22;2361;49.540;8.390;2023-07-02T08:43:11;30.20;54.90
4695;DHT22;2361;49.540;8.390;2023-07-02T08:45:40;30.90;53.90
4695;DHT22;2361;49.540;8.390;2023-07-02T08:48:10;31.20;53.60
4695;DHT22;2361;49.540;8.390;2023-07-02T08:50:37;30.80;53.60
4695;DHT22;2361;49.540;8.390;2023-07-02T08:53:04;30.10;54.60
4695;DHT22;2361;49.540;8.390;2023-07-02T08:55:31;29.80;55.30
4695;DHT22;2361;49.540;8.390;2023-07-02T08:57:58;29.30;55.60
4695;DHT22;2361;49.540;8.390;2023-07-02T09:00:26;28.60;56.70
4695;DHT22;2361;49.540;8.390;2023-07-02T09:02:53;28.00;57.90
4695;DHT22;2361;49.540;8.390;2023-07-02T09:05:20;27.40;58.70
4695;DHT22;2361;49.540;8.390;2023-07-02T09:07:49;27.00;59.00
4695;DHT22;2361;49.540;8.390;2023-07-02T09:10:29;26.80;58.90
4695;DHT22;2361;49.540;8.390;2023-07-02T09:13:07;26.60;59.30
4695;DHT22;2361;49.540;8.390;2023-07-02T09:15:40;26.40;59.80
4695;DHT22;2361;49.540;8.390;2023-07-02T09:18:21;25.90;61.00
4695;DHT22;2361;49.540;8.390;2023-07-02T09:20:54;25.70;62.10
4695;DHT22;2361;49.540;8.390;2023-07-02T09:23:21;25.70;61.60
4695;DHT22;2361;49.540;8.390;2023-07-02T09:25:49;26.00;61.00
4695;DHT22;2361;49.540;8.390;2023-07-02T09:28:18;26.00;60.90
4695;DHT22;2361;49.540;8.390;2023-07-02T09:31:04;25.80;61.10
4695;DHT22;2361;49.540;8.390;2023-07-02T09:33:31;25.60;62.00
4695;DHT22;2361;49.540;8.390;2023-07-02T09:36:00;25.50;62.10
4695;DHT22;2361;49.540;8.390;2023-07-02T09:38:27;25.50;62.00
4695;DHT22;2361;49.540;8.390;2023-07-02T09:40:54;25.60;61.90
4695;DHT22;2361;49.540;8.390;2023-07-02T09:43:22;25.70;62.00
4695;DHT22;2361;49.540;8.390;2023-07-02T09:45:52;25.90;61.40
4695;DHT22;2361;49.540;8.390;2023-07-02T09:48:24;25.90;60.70
4695;DHT22;2361;49.540;8.390;2023-07-02T09:50:52;25.80;61.00
4695;DHT22;2361;49.540;8.390;2023-07-02T09:53:20;25.60;61.30
4695;DHT22;2361;49.540;8.390;2023-07-02T09:55:47;25.40;62.00
4695;DHT22;2361;49.540;8.390;2023-07-02T09:58:16;25.30;61.80
4695;DHT22;2361;49.540;8.390;2023-07-02T10:00:43;25.40;62.10
4695;DHT22;2361;49.540;8.390;2023-07-02T10:03:10;26.00;60.70
4695;DHT22;2361;49.540;8.390;2023-07-02T10:05:37;26.90;58.60
4695;DHT22;2361;49.540;8.390;2023-07-02T10:08:14;27.60;57.70
4695;DHT22;2361;49.540;8.390;2023-07-02T10:10:43;27.50;57.50
4695;DHT22;2361;49.540;8.390;2023-07-02T10:13:10;27.00;58.60
4695;DHT22;2361;49.540;8.390;2023-07-02T10:15:37;26.50;59.40
4695;DHT22;2361;49.540;8.390;2023-07-02T10:18:06;26.00;60.30
4695;DHT22;2361;49.540;8.390;2023-07-02T10:20:34;25.70;61.00
4695;DHT22;2361;49.540;8.390;2023-07-02T10:23:04;25.70;61.50
4695;DHT22;2361;49.540;8.390;2023-07-02T10:25:42;25.80;60.90
4695;DHT22;2361;49.540;8.390;2023-07-02T10:28:19;25.80;60.20
4695;DHT22;2361;49.540;8.390;2023-07-02T10:30:49;25.80;59.80
4695;DHT22;2361;49.540;8.390;2023-07-02T10:33:17;25.70;59.70
4695;DHT22;2361;49.540;8.390;2023-07-02T10:35:47;25.70;60.50
4695;DHT22;2361;49.540;8.390;2023-07-02T10:38:25;25.60;60.80
4695;DHT22;2361;49.540;8.390;2023-07-02T10:40:57;25.60;60.60
4695;DHT22;2361;49.540;8.390;2023-07-02T10:43:28;25.60;60.70
4695;DHT22;2361;49.540;8.390;2023-07-02T10:45:58;25.60;60.00
4695;DHT22;2361;49.540;8.390;2023-07-02T10:48:30;25.50;60.90
4695;DHT22;2361;49.540;8.390;2023-07-02T10:50:58;25.40;59.50
4695;DHT22;2361;49.540;8.390;2023-07-02T10:53:25;25.30;60.00
4695;DHT22;2361;49.540;8.390;2023-07-02T10:55:54;25.20;59.50
4695;DHT22;2361;49.540;8.390;2023-07-02T10:58:24;25.30;58.80
4695;DHT22;2361;49.540;8.390;2023-07-02T11:00:51;25.40;58.60
4695;DHT22;2361;49.540;8.390;2023-07-02T11:03:23;25.50;59.00
4695;DHT22;2361;49.540;8.390;2023-07-02T11:05:52;25.40;59.60
4695;DHT22;2361;49.540;8.390;2023-07-02T11:08:20;25.40;60.20
4695;DHT22;2361;49.540;8.390;2023-07-02T11:10:48;25.40;60.40
4695;DHT22;2361;49.540;8.390;2023-07-02T11:13:16;25.30;60.10
4695;DHT22;2361;49.540;8.390;2023-07-02T11:15:45;25.20;60.10
4695;DHT22;2361;49.540;8.390;2023-07-02T11:18:14;25.30;59.40
4695;DHT22;2361;49.540;8.390;2023-07-02T11:20:44;25.20;59.30
4695;DHT22;2361;49.540;8.390;2023-07-02T11:23:19;25.20;59.50
4695;DHT22;2361;49.540;8.390;2023-07-02T11:26:10;25.10;59.80
4695;DHT22;2361;49.540;8.390;2023-07-02T11:28:48;25.10;60.80
4695;DHT22;2361;49.540;8.390;2023-07-02T11:31:24;25.10;60.20
4695;DHT22;2361;49.540;8.390;2023-07-02T11:33:56;25.20;60.60
4695;DHT22;2361;49.540;8.390;2023-07-02T11:36:24;25.30;60.60
4695;DHT22;2361;49.540;8.390;2023-07-02T11:38:51;25.40;60.50
4695;DHT22;2361;49.540;8.390;2023-07-02T11:41:19;25.30;60.00
4695;DHT22;2361;49.540;8.390;2023-07-02T11:43:47;25.20;59.50
4695;DHT22;2361;49.540;8.390;2023-07-02T11:46:14;25.20;59.10
4695;DHT22;2361;49.540;8.390;2023-07-02T11:48:42;25.20;58.50
4695;DHT22;2361;49.540;8.390;2023-07-02T11:51:09;25.10;58.80
4695;DHT22;2361;49.540;8.390;2023-07-02T11:53:36;25.30;58.60
4695;DHT22;2361;49.540;8.390;2023-07-02T11:56:03;25.30;58.60
4695;DHT22;2361;49.540;8.390;2023-07-02T11:58:30;25.30;58.60
4695;DHT22;2361;49.540;8.390;2023-07-02T12:00:57;25.40;58.70
4695;DHT22;2361;49.540;8.390;2023-07-02T12:03:24;25.40;58.70
4695;DHT22;2361;49.540;8.390;2023-07-02T12:05:51;25.50;58.30
4695;DHT22;2361;49.540;8.390;2023-07-02T12:08:18;25.60;58.50
4695;DHT22;2361;49.540;8.390;2023-07-02T12:10:45;25.70;58.90
4695;DHT22;2361;49.540;8.390;2023-07-02T12:13:12;25.70;58.90
4695;DHT22;2361;49.540;8.390;2023-07-02T12:15:39;25.70;58.50
4695;DHT22;2361;49.540;8.390;2023-07-02T12:18:08;25.80;58.60
4695;DHT22;2361;49.540;8.390;2023-07-02T12:20:36;25.80;58.10
4695;DHT22;2361;49.540;8.390;2023-07-02T12:23:04;25.80;58.30
4695;DHT22;2361;49.540;8.390;2023-07-02T12:25:32;25.80;57.60
4695;DHT22;2361;49.540;8.390;2023-07-02T12:27:59;25.80;57.80
4695;DHT22;2361;49.540;8.390;2023-07-02T12:30:26;25.80;57.90
4695;DHT22;2361;49.540;8.390;2023-07-02T12:32:53;25.90;57.70
4695;DHT22;2361;49.540;8.390;2023-07-02T12:35:20;25.90;57.80
4695;DHT22;2361;49.540;8.390;2023-07-02T12:37:50;25.90;57.70
4695;DHT22;2361;49.540;8.390;2023-07-02T12:40:19;25.90;57.40
4695;DHT22;2361;49.540;8.390;2023-07-02T12:42:48;25.90;57.20
4695;DHT22;2361;49.540;8.390;2023-07-02T12:45:18;25.90;57.30
4695;DHT22;2361;49.540;8.390;2023-07-02T12:47:47;25.80;57.80
4695;DHT22;2361;49.540;8.390;2023-07-02T12:50:15;25.70;58.30
4695;DHT22;2361;49.540;8.390;2023-07-02T12:52:42;25.80;58.60
4695;DHT22;2361;49.540;8.390;2023-07-02T12:55:09;25.80;58.70
4695;DHT22;2361;49.540;8.390;2023-07-02T12:57:36;25.80;58.20
4695;DHT22;2361;49.540;8.390;2023-07-02T13:00:03;25.80;57.40
4695;DHT22;2361;49.540;8.390;2023-07-02T13:02:35;25.70;57.60
4695;DHT22;2361;49.540;8.390;2023-07-02T13:05:12;25.70;57.60
4695;DHT22;2361;49.540;8.390;2023-07-02T13:07:40;25.80;57.20
4695;DHT22;2361;49.540;8.390;2023-07-02T13:10:07;25.70;56.50
4695;DHT22;2361;49.540;8.390;2023-07-02T13:12:35;25.70;57.10
4695;DHT22;2361;49.540;8.390;2023-07-02T13:15:02;25.80;57.20
4695;DHT22;2361;49.540;8.390;2023-07-02T13:17:29;26.00;57.10
4695;DHT22;2361;49.540;8.390;2023-07-02T13:19:56;26.00;57.10
4695;DHT22;2361;49.540;8.390;2023-07-02T13:22:23;26.10;57.30
4695;DHT22;2361;49.540;8.390;2023-07-02T13:24:50;26.20;57.70
4695;DHT22;2361;49.540;8.390;2023-07-02T13:27:17;26.30;57.70
4695;DHT22;2361;49.540;8.390;2023-07-02T13:29:45;26.20;57.10
4695;DHT22;2361;49.540;8.390;2023-07-02T13:32:12;26.10;57.20
4695;DHT22;2361;49.540;8.390;2023-07-02T13:34:39;26.10;57.30
4695;DHT22;2361;49.540;8.390;2023-07-02T13:37:08;26.10;57.50
4695;DHT22;2361;49.540;8.390;2023-07-02T13:39:35;26.20;57.40
4695;DHT22;2361;49.540;8.390;2023-07-02T13:42:02;26.20;57.20
4695;DHT22;2361;49.540;8.390;2023-07-02T13:44:29;26.30;57.30
4695;DHT22;2361;49.540;8.390;2023-07-02T13:46:56;26.30;56.90
4695;DHT22;2361;49.540;8.390;2023-07-02T13:49:23;26.30;56.70
4695;DHT22;2361;49.540;8.390;2023-07-02T13:51:50;26.30;56.80
4695;DHT22;2361;49.540;8.390;2023-07-02T13:54:18;26.20;56.80
4695;DHT22;2361;49.540;8.390;2023-07-02T13:56:47;26.20;56.90
4695;DHT22;2361;49.540;8.390;2023-07-02T13:59:16;26.10;57.00
4695;DHT22;2361;49.540;8.390;2023-07-02T14:01:44;26.00;57.60
4695;DHT22;2361;49.540;8.390;2023-07-02T14:04:13;26.00;58.00
4695;DHT22;2361;49.540;8.390;2023-07-02T14:06:41;26.10;58.10
4695;DHT22;2361;49.540;8.390;2023-07-02T14:09:09;26.10;57.70
4695;DHT22;2361;49.540;8.390;2023-07-02T14:11:38;26.20;57.60
4695;DHT22;2361;49.540;8.390;2023-07-02T14:14:07;26.20;57.40
4695;DHT22;2361;49.540;8.390;2023-07-02T14:16:34;26.20;57.20
4695;DHT22;2361;49.540;8.390;2023-07-02T14:19:01;26.20;57.30
4695;DHT22;2361;49.540;8.390;2023-07-02T14:21:28;26.10;57.40
4695;DHT22;2361;49.540;8.390;2023-07-02T14:23:55;26.10;57.20
4695;DHT22;2361;49.540;8.390;2023-07-02T14:26:22;26.10;57.30
4695;DHT22;2361;49.540;8.390;2023-07-02T14:28:49;26.10;57.40
4695;DHT22;2361;49.540;8.390;2023-07-02T14:31:16;26.20;57.40
4695;DHT22;2361;49.540;8.390;2023-07-02T14:33:43;26.30;57.30
4695;DHT22;2361;49.540;8.390;2023-07-02T14:36:10;26.40;57.10
4695;DHT22;2361;49.540;8.390;2023-07-02T14:38:37;26.40;57.00
4695;DHT22;2361;49.540;8.390;2023-07-02T14:41:04;26.40;57.10
4695;DHT22;2361;49.540;8.390;2023-07-02T14:43:31;26.40;57.00
4695;DHT22;2361;49.540;8.390;2023-07-02T14:46:00;26.30;57.60
4695;DHT22;2361;49.540;8.390;2023-07-02T14:48:28;26.20;57.10
4695;DHT22;2361;49.540;8.390;2023-07-02T14:50:57;26.20;57.30
4695;DHT22;2361;49.540;8.390;2023-07-02T14:53:27;26.10;57.50
4695;DHT22;2361;49.540;8.390;2023-07-02T14:55:57;26.00;57.30
4695;DHT22;2361;49.540;8.390;2023-07-02T14:58:26;26.00;57.10
4695;DHT22;2361;49.540;8.390;2023-07-02T15:00:55;26.00;57.20
4695;DHT22;2361;49.540;8.390;2023-07-02T15:03:24;26.00;57.20
4695;DHT22;2361;49.540;8.390;2023-07-02T15:05:53;26.00;57.50
4695;DHT22;2361;49.540;8.390;2023-07-02T15:08:21;25.90;57.50
4695;DHT22;2361;49.540;8.390;2023-07-02T15:10:52;25.80;57.70
4695;DHT22;2361;49.540;8.390;2023-07-02T15:13:20;25.80;58.00
4695;DHT22;2361;49.540;8.390;2023-07-02T15:15:50;25.80;57.60
4695;DHT22;2361;49.540;8.390;2023-07-02T15:18:18;25.80;57.70
4695;DHT22;2361;49.540;8.390;2023-07-02T15:20:48;25.80;57.40
4695;DHT22;2361;49.540;8.390;2023-07-02T15:23:17;25.80;57.50
4695;DHT22;2361;49.540;8.390;2023-07-02T15:25:59;25.70;57.60
4695;DHT22;2361;49.540;8.390;2023-07-02T15:28:28;25.70;57.80
4695;DHT22;2361;49.540;8.390;2023-07-02T15:31:07;25.70;58.00
4695;DHT22;2361;49.540;8.390;2023-07-02T15:33:37;25.70;58.10
4695;DHT22;2361;49.540;8.390;2023-07-02T15:36:06;25.70;58.10
4695;DHT22;2361;49.540;8.390;2023-07-02T15:38:35;25.70;57.60
4695;DHT22;2361;49.540;8.390;2023-07-02T15:41:11;25.80;57.30
4695;DHT22;2361;49.540;8.390;2023-07-02T15:43:41;25.90;57.50
4695;DHT22;2361;49.540;8.390;2023-07-02T15:46:11;25.80;57.60
4695;DHT22;2361;49.540;8.390;2023-07-02T15:48:40;25.70;57.30
4695;DHT22;2361;49.540;8.390;2023-07-02T15:51:07;25.70;57.70
4695;DHT22;2361;49.540;8.390;2023-07-02T15:53:39;25.70;58.10
4695;DHT22;2361;49.540;8.390;2023-07-02T15:56:07;25.70;58.20
4695;DHT22;2361;49.540;8.390;2023-07-02T15:58:34;25.80;58.10
4695;DHT22;2361;49.540;8.390;2023-07-02T16:01:14;25.80;58.30
4695;DHT22;2361;49.540;8.390;2023-07-02T16:03:43;25.80;58.30
4695;DHT22;2361;49.540;8.390;2023-07-02T16:06:13;25.80;58.00
4695;DHT22;2361;49.540;8.390;2023-07-02T16:08:40;25.80;58.10
4695;DHT22;2361;49.540;8.390;2023-07-02T16:11:08;25.80;58.00
4695;DHT22;2361;49.540;8.390;2023-07-02T16:13:38;25.70;58.20